sensor_id;sensor_type;location;lat;lon;timestamp;P1;durP1;ratioP1;P2;durP2;ratioP2
64986;SDS011;67903;52.108;9.358;2023-09-18T00:02:11;7.30;;;6.57;;
64986;SDS011;67903;52.108;9.358;2023-09-18T00:04:57;6.93;;;6.30;;
64986;SDS011;67903;52.108;9.358;2023-09-18T00:07:43;8.60;;;6.60;;
64986;SDS011;67903;52.108;9.358;2023-09-18T00:10:29;8.30;;;6.93;;
64986;SDS011;67903;52.108;9.358;2023-09-18T00:13:15;7.90;;;7.20;;
64986;SDS011;67903;52.108;9.358;2023-09-18T00:16:01;7.63;;;6.90;;
64986;SDS011;67903;52.108;9.358;2023-09-18T00:18:48;8.52;;;7.30;;
64986;SDS011;67903;52.108;9.358;2023-09-18T00:21:35;7.32;;;6.57;;
64986;SDS011;67903;52.108;9.358;2023-09-18T00:24:21;7.80;;;7.00;;
64986;SDS011;67903;52.108;9.358;2023-09-18T00:27:06;10.38;;;7.38;;
64986;SDS011;67903;52.108;9.358;2023-09-18T00:29:52;7.50;;;6.90;;
64986;SDS011;67903;52.108;9.358;2023-09-18T00:32:37;7.40;;;6.70;;
64986;SDS011;67903;52.108;9.358;2023-09-18T00:35:23;7.35;;;6.70;;
64986;SDS011;67903;52.108;9.358;2023-09-18T00:38:09;8.68;;;7.53;;
64986;SDS011;67903;52.108;9.358;2023-09-18T00:40:55;8.15;;;7.22;;
64986;SDS011;67903;52.108;9.358;2023-09-18T00:43:41;9.80;;;6.95;;
64986;SDS011;67903;52.108;9.358;2023-09-18T00:46:27;9.40;;;7.10;;
64986;SDS011;67903;52.108;9.358;2023-09-18T00:49:14;8.10;;;6.63;;
64986;SDS011;67903;52.108;9.358;2023-09-18T00:52:01;9.25;;;6.60;;
64986;SDS011;67903;52.108;9.358;2023-09-18T00:54:47;8.02;;;7.15;;
64986;SDS011;67903;52.108;9.358;2023-09-18T00:57:33;8.95;;;6.90;;
64986;SDS011;67903;52.108;9.358;2023-09-18T01:00:20;7.40;;;6.70;;
64986;SDS011;67903;52.108;9.358;2023-09-18T01:03:07;8.88;;;6.90;;
64986;SDS011;67903;52.108;9.358;2023-09-18T01:05:53;7.13;;;6.53;;
64986;SDS011;67903;52.108;9.358;2023-09-18T01:08:39;7.60;;;6.85;;
64986;SDS011;67903;52.108;9.358;2023-09-18T01:14:20;7.97;;;7.07;;
64986;SDS011;67903;52.108;9.358;2023-09-18T01:17:24;9.13;;;7.43;;
64986;SDS011;67903;52.108;9.358;2023-09-18T01:20:11;8.10;;;6.95;;
64986;SDS011;67903;52.108;9.358;2023-09-18T01:22:57;10.07;;;8.13;;
64986;SDS011;67903;52.108;9.358;2023-09-18T01:25:42;7.22;;;6.53;;
64986;SDS011;67903;52.108;9.358;2023-09-18T01:28:28;7.93;;;7.22;;
64986;SDS011;67903;52.108;9.358;2023-09-18T01:31:13;8.30;;;7.05;;
64986;SDS011;67903;52.108;9.358;2023-09-18T01:33:59;7.00;;;6.38;;
64986;SDS011;67903;52.108;9.358;2023-09-18T01:36:45;7.43;;;6.38;;
64986;SDS011;67903;52.108;9.358;2023-09-18T01:39:31;8.65;;;7.10;;
64986;SDS011;67903;52.108;9.358;2023-09-18T01:42:20;7.72;;;6.65;;
64986;SDS011;67903;52.108;9.358;2023-09-18T01:45:05;9.10;;;6.68;;
64986;SDS011;67903;52.108;9.358;2023-09-18T01:47:51;8.80;;;7.28;;
64986;SDS011;67903;52.108;9.358;2023-09-18T01:50:37;8.10;;;7.30;;
64986;SDS011;67903;52.108;9.358;2023-09-18T01:53:24;7.28;;;6.43;;
64986;SDS011;67903;52.108;9.358;2023-09-18T01:56:11;8.73;;;6.53;;
64986;SDS011;67903;52.108;9.358;2023-09-18T01:58:57;7.78;;;6.97;;
64986;SDS011;67903;52.108;9.358;2023-09-18T02:01:42;7.43;;;6.35;;
64986;SDS011;67903;52.108;9.358;2023-09-18T02:04:29;7.30;;;6.53;;
64986;SDS011;67903;52.108;9.358;2023-09-18T02:07:34;7.88;;;6.55;;
64986;SDS011;67903;52.108;9.358;2023-09-18T02:10:20;7.80;;;7.10;;
64986;SDS011;67903;52.108;9.358;2023-09-18T02:13:06;7.90;;;7.10;;
64986;SDS011;67903;52.108;9.358;2023-09-18T02:15:52;8.00;;;6.65;;
64986;SDS011;67903;52.108;9.358;2023-09-18T02:18:38;7.93;;;6.55;;
64986;SDS011;67903;52.108;9.358;2023-09-18T02:21:24;7.57;;;6.80;;
64986;SDS011;67903;52.108;9.358;2023-09-18T02:24:09;8.35;;;7.45;;
64986;SDS011;67903;52.108;9.358;2023-09-18T02:26:55;8.05;;;7.25;;
64986;SDS011;67903;52.108;9.358;2023-09-18T02:29:40;8.68;;;7.05;;
64986;SDS011;67903;52.108;9.358;2023-09-18T02:32:26;9.95;;;7.45;;
64986;SDS011;67903;52.108;9.358;2023-09-18T02:35:11;7.82;;;7.03;;
64986;SDS011;67903;52.108;9.358;2023-09-18T02:37:57;8.43;;;7.18;;
64986;SDS011;67903;52.108;9.358;2023-09-18T02:40:44;12.45;;;7.50;;
64986;SDS011;67903;52.108;9.358;2023-09-18T02:43:30;7.55;;;6.85;;
64986;SDS011;67903;52.108;9.358;2023-09-18T02:46:15;9.25;;;7.55;;
64986;SDS011;67903;52.108;9.358;2023-09-18T02:49:01;7.88;;;7.18;;
64986;SDS011;67903;52.108;9.358;2023-09-18T02:51:47;8.80;;;7.78;;
64986;SDS011;67903;52.108;9.358;2023-09-18T02:54:33;8.10;;;7.30;;
64986;SDS011;67903;52.108;9.358;2023-09-18T02:57:19;10.18;;;6.93;;
64986;SDS011;67903;52.108;9.358;2023-09-18T03:00:04;7.90;;;7.20;;
64986;SDS011;67903;52.108;9.358;2023-09-18T03:02:50;9.13;;;7.20;;
64986;SDS011;67903;52.108;9.358;2023-09-18T03:05:36;7.80;;;6.50;;
64986;SDS011;67903;52.108;9.358;2023-09-18T03:08:24;8.00;;;7.00;;
64986;SDS011;67903;52.108;9.358;2023-09-18T03:11:10;8.55;;;7.22;;
64986;SDS011;67903;52.108;9.358;2023-09-18T03:13:58;7.53;;;6.90;;
64986;SDS011;67903;52.108;9.358;2023-09-18T03:16:44;9.90;;;6.90;;
64986;SDS011;67903;52.108;9.358;2023-09-18T03:19:29;8.38;;;7.22;;
64986;SDS011;67903;52.108;9.358;2023-09-18T03:22:16;9.13;;;6.93;;
64986;SDS011;67903;52.108;9.358;2023-09-18T03:25:01;7.30;;;6.70;;
64986;SDS011;67903;52.108;9.358;2023-09-18T03:27:47;8.40;;;6.90;;
64986;SDS011;67903;52.108;9.358;2023-09-18T03:30:33;8.18;;;7.38;;
64986;SDS011;67903;52.108;9.358;2023-09-18T03:33:19;8.52;;;7.35;;
64986;SDS011;67903;52.108;9.358;2023-09-18T03:36:05;8.07;;;7.28;;
64986;SDS011;67903;52.108;9.358;2023-09-18T03:38:52;9.98;;;7.45;;
64986;SDS011;67903;52.108;9.358;2023-09-18T03:41:38;9.30;;;7.22;;
64986;SDS011;67903;52.108;9.358;2023-09-18T03:44:23;8.45;;;7.53;;
64986;SDS011;67903;52.108;9.358;2023-09-18T03:47:09;8.27;;;7.47;;
64986;SDS011;67903;52.108;9.358;2023-09-18T03:49:54;10.52;;;7.65;;
64986;SDS011;67903;52.108;9.358;2023-09-18T03:52:40;8.40;;;7.60;;
64986;SDS011;67903;52.108;9.358;2023-09-18T03:55:26;9.07;;;7.38;;
64986;SDS011;67903;52.108;9.358;2023-09-18T03:58:11;8.48;;;7.20;;
64986;SDS011;67903;52.108;9.358;2023-09-18T04:00:58;9.00;;;7.22;;
64986;SDS011;67903;52.108;9.358;2023-09-18T04:03:43;8.63;;;7.40;;
64986;SDS011;67903;52.108;9.358;2023-09-18T04:06:36;7.57;;;6.88;;
64986;SDS011;67903;52.108;9.358;2023-09-18T04:09:24;9.23;;;6.80;;
64986;SDS011;67903;52.108;9.358;2023-09-18T04:12:09;8.23;;;7.53;;
64986;SDS011;67903;52.108;9.358;2023-09-18T04:14:55;10.38;;;7.13;;
64986;SDS011;67903;52.108;9.358;2023-09-18T04:17:40;8.63;;;7.47;;
64986;SDS011;67903;52.108;9.358;2023-09-18T04:20:26;8.23;;;7.38;;
64986;SDS011;67903;52.108;9.358;2023-09-18T04:23:19;8.02;;;7.22;;
64986;SDS011;67903;52.108;9.358;2023-09-18T04:26:10;7.82;;;6.90;;
64986;SDS011;67903;52.108;9.358;2023-09-18T04:28:58;9.05;;;7.32;;
64986;SDS011;67903;52.108;9.358;2023-09-18T04:31:46;9.60;;;7.03;;
64986;SDS011;67903;52.108;9.358;2023-09-18T04:34:33;7.70;;;6.95;;
64986;SDS011;67903;52.108;9.358;2023-09-18T04:37:20;8.65;;;6.85;;
64986;SDS011;67903;52.108;9.358;2023-09-18T04:40:05;10.45;;;7.35;;
64986;SDS011;67903;52.108;9.358;2023-09-18T04:42:56;7.57;;;6.90;;
64986;SDS011;67903;52.108;9.358;2023-09-18T04:45:43;11.43;;;7.93;;
64986;SDS011;67903;52.108;9.358;2023-09-18T04:48:31;12.18;;;8.20;;
64986;SDS011;67903;52.108;9.358;2023-09-18T04:51:17;8.45;;;7.55;;
64986;SDS011;67903;52.108;9.358;2023-09-18T04:54:03;8.50;;;7.68;;
64986;SDS011;67903;52.108;9.358;2023-09-18T04:56:49;10.05;;;7.70;;
64986;SDS011;67903;52.108;9.358;2023-09-18T04:59:35;8.35;;;7.35;;
64986;SDS011;67903;52.108;9.358;2023-09-18T05:02:21;12.80;;;8.00;;
64986;SDS011;67903;52.108;9.358;2023-09-18T05:05:07;8.02;;;7.22;;
64986;SDS011;67903;52.108;9.358;2023-09-18T05:07:53;8.57;;;7.68;;
64986;SDS011;67903;52.108;9.358;2023-09-18T05:10:39;10.10;;;7.20;;
64986;SDS011;67903;52.108;9.358;2023-09-18T05:13:25;11.07;;;7.55;;
64986;SDS011;67903;52.108;9.358;2023-09-18T05:16:13;9.07;;;7.80;;
64986;SDS011;67903;52.108;9.358;2023-09-18T05:18:59;11.63;;;8.32;;
64986;SDS011;67903;52.108;9.358;2023-09-18T05:21:45;9.18;;;8.18;;
64986;SDS011;67903;52.108;9.358;2023-09-18T05:24:31;8.77;;;7.88;;
64986;SDS011;67903;52.108;9.358;2023-09-18T05:27:17;8.70;;;7.68;;
64986;SDS011;67903;52.108;9.358;2023-09-18T05:30:02;8.45;;;7.40;;
64986;SDS011;67903;52.108;9.358;2023-09-18T05:32:50;8.90;;;8.00;;
64986;SDS011;67903;52.108;9.358;2023-09-18T05:35:39;9.60;;;7.32;;
64986;SDS011;67903;52.108;9.358;2023-09-18T05:38:26;7.70;;;6.80;;
64986;SDS011;67903;52.108;9.358;2023-09-18T05:41:12;7.88;;;7.13;;
64986;SDS011;67903;52.108;9.358;2023-09-18T05:43:57;9.73;;;7.88;;
64986;SDS011;67903;52.108;9.358;2023-09-18T05:46:43;8.52;;;7.47;;
64986;SDS011;67903;52.108;9.358;2023-09-18T05:49:28;8.13;;;7.00;;
64986;SDS011;67903;52.108;9.358;2023-09-18T05:52:15;7.57;;;6.88;;
64986;SDS011;67903;52.108;9.358;2023-09-18T05:55:01;7.32;;;6.63;;
64986;SDS011;67903;52.108;9.358;2023-09-18T05:57:50;8.90;;;7.00;;
64986;SDS011;67903;52.108;9.358;2023-09-18T06:00:35;33.00;;;26.15;;
64986;SDS011;67903;52.108;9.358;2023-09-18T06:03:22;23.10;;;16.98;;
64986;SDS011;67903;52.108;9.358;2023-09-18T06:06:07;8.48;;;6.75;;
64986;SDS011;67903;52.108;9.358;2023-09-18T06:08:53;8.27;;;7.05;;
64986;SDS011;67903;52.108;9.358;2023-09-18T06:11:39;9.95;;;7.97;;
64986;SDS011;67903;52.108;9.358;2023-09-18T06:14:24;7.85;;;7.05;;
64986;SDS011;67903;52.108;9.358;2023-09-18T06:17:10;8.82;;;6.93;;
64986;SDS011;67903;52.108;9.358;2023-09-18T06:19:56;7.07;;;5.97;;
64986;SDS011;67903;52.108;9.358;2023-09-18T06:22:41;8.70;;;5.90;;
64986;SDS011;67903;52.108;9.358;2023-09-18T06:25:27;6.90;;;5.97;;
64986;SDS011;67903;52.108;9.358;2023-09-18T06:28:13;6.53;;;5.90;;
64986;SDS011;67903;52.108;9.358;2023-09-18T06:30:58;6.65;;;6.03;;
64986;SDS011;67903;52.108;9.358;2023-09-18T06:33:44;8.52;;;6.30;;
64986;SDS011;67903;52.108;9.358;2023-09-18T06:36:30;6.70;;;6.07;;
64986;SDS011;67903;52.108;9.358;2023-09-18T06:39:16;7.60;;;5.60;;
64986;SDS011;67903;52.108;9.358;2023-09-18T06:42:01;6.38;;;5.68;;
64986;SDS011;67903;52.108;9.358;2023-09-18T06:44:47;6.72;;;5.90;;
64986;SDS011;67903;52.108;9.358;2023-09-18T06:47:33;7.63;;;6.40;;
64986;SDS011;67903;52.108;9.358;2023-09-18T06:50:19;6.80;;;6.10;;
64986;SDS011;67903;52.108;9.358;2023-09-18T06:53:04;6.13;;;5.57;;
64986;SDS011;67903;52.108;9.358;2023-09-18T06:55:50;8.65;;;6.63;;
64986;SDS011;67903;52.108;9.358;2023-09-18T06:58:36;7.22;;;6.53;;
64986;SDS011;67903;52.108;9.358;2023-09-18T07:01:22;6.07;;;5.47;;
64986;SDS011;67903;52.108;9.358;2023-09-18T07:04:09;6.10;;;5.60;;
64986;SDS011;67903;52.108;9.358;2023-09-18T07:06:55;7.25;;;5.78;;
64986;SDS011;67903;52.108;9.358;2023-09-18T07:09:41;7.18;;;5.45;;
64986;SDS011;67903;52.108;9.358;2023-09-18T07:12:47;9.77;;;6.45;;
64986;SDS011;67903;52.108;9.358;2023-09-18T07:15:32;6.75;;;5.43;;
64986;SDS011;67903;52.108;9.358;2023-09-18T07:18:18;5.90;;;5.40;;
64986;SDS011;67903;52.108;9.358;2023-09-18T07:21:03;5.55;;;5.05;;
64986;SDS011;67903;52.108;9.358;2023-09-18T07:23:49;9.90;;;6.57;;
64986;SDS011;67903;52.108;9.358;2023-09-18T07:26:35;6.22;;;5.63;;
64986;SDS011;67903;52.108;9.358;2023-09-18T07:29:21;5.85;;;5.38;;
64986;SDS011;67903;52.108;9.358;2023-09-18T07:32:06;6.90;;;6.30;;
64986;SDS011;67903;52.108;9.358;2023-09-18T07:34:52;7.07;;;6.10;;
64986;SDS011;67903;52.108;9.358;2023-09-18T07:37:37;8.90;;;5.03;;
64986;SDS011;67903;52.108;9.358;2023-09-18T07:40:23;7.18;;;5.13;;
64986;SDS011;67903;52.108;9.358;2023-09-18T07:43:08;6.55;;;5.10;;
64986;SDS011;67903;52.108;9.358;2023-09-18T07:45:54;6.22;;;4.72;;
64986;SDS011;67903;52.108;9.358;2023-09-18T07:48:40;5.40;;;4.60;;
64986;SDS011;67903;52.108;9.358;2023-09-18T07:51:25;6.00;;;5.40;;
64986;SDS011;67903;52.108;9.358;2023-09-18T07:54:13;6.38;;;5.30;;
64986;SDS011;67903;52.108;9.358;2023-09-18T07:57:01;6.97;;;4.93;;
64986;SDS011;67903;52.108;9.358;2023-09-18T07:59:46;6.93;;;4.40;;
64986;SDS011;67903;52.108;9.358;2023-09-18T08:02:32;8.00;;;4.55;;
64986;SDS011;67903;52.108;9.358;2023-09-18T08:05:20;6.57;;;4.07;;
64986;SDS011;67903;52.108;9.358;2023-09-18T08:08:05;7.90;;;4.15;;
64986;SDS011;67903;52.108;9.358;2023-09-18T08:10:51;7.05;;;3.90;;
64986;SDS011;67903;52.108;9.358;2023-09-18T08:13:37;10.98;;;5.00;;
64986;SDS011;67903;52.108;9.358;2023-09-18T08:16:23;9.32;;;4.10;;
64986;SDS011;67903;52.108;9.358;2023-09-18T08:19:08;7.78;;;3.88;;
64986;SDS011;67903;52.108;9.358;2023-09-18T08:21:54;7.43;;;4.28;;
64986;SDS011;67903;52.108;9.358;2023-09-18T08:24:45;8.00;;;3.70;;
64986;SDS011;67903;52.108;9.358;2023-09-18T08:27:31;5.95;;;3.70;;
64986;SDS011;67903;52.108;9.358;2023-09-18T08:30:16;7.35;;;3.58;;
64986;SDS011;67903;52.108;9.358;2023-09-18T08:33:05;5.80;;;3.63;;
64986;SDS011;67903;52.108;9.358;2023-09-18T08:35:51;6.63;;;3.40;;
64986;SDS011;67903;52.108;9.358;2023-09-18T08:38:37;5.43;;;3.50;;
64986;SDS011;67903;52.108;9.358;2023-09-18T08:41:23;6.50;;;3.88;;
64986;SDS011;67903;52.108;9.358;2023-09-18T08:44:12;6.03;;;4.05;;
64986;SDS011;67903;52.108;9.358;2023-09-18T08:46:59;6.28;;;3.80;;
64986;SDS011;67903;52.108;9.358;2023-09-18T08:49:48;9.95;;;4.25;;
64986;SDS011;67903;52.108;9.358;2023-09-18T08:52:35;9.70;;;3.97;;
64986;SDS011;67903;52.108;9.358;2023-09-18T08:55:21;6.60;;;3.90;;
64986;SDS011;67903;52.108;9.358;2023-09-18T08:58:09;7.22;;;3.58;;
64986;SDS011;67903;52.108;9.358;2023-09-18T09:00:54;7.25;;;3.88;;
64986;SDS011;67903;52.108;9.358;2023-09-18T09:03:40;7.22;;;3.67;;
64986;SDS011;67903;52.108;9.358;2023-09-18T09:06:27;6.00;;;3.63;;
64986;SDS011;67903;52.108;9.358;2023-09-18T09:09:13;4.57;;;3.40;;
64986;SDS011;67903;52.108;9.358;2023-09-18T09:11:59;6.57;;;4.13;;
64986;SDS011;67903;52.108;9.358;2023-09-18T09:15:01;6.53;;;3.85;;
64986;SDS011;67903;52.108;9.358;2023-09-18T09:17:48;8.98;;;3.92;;
64986;SDS011;67903;52.108;9.358;2023-09-18T09:20:35;8.60;;;3.85;;
64986;SDS011;67903;52.108;9.358;2023-09-18T09:23:21;8.63;;;3.50;;
64986;SDS011;67903;52.108;9.358;2023-09-18T09:26:14;5.22;;;3.33;;
64986;SDS011;67903;52.108;9.358;2023-09-18T09:29:14;6.50;;;3.58;;
64986;SDS011;67903;52.108;9.358;2023-09-18T09:32:17;7.07;;;3.22;;
64986;SDS011;67903;52.108;9.358;2023-09-18T09:35:04;6.20;;;3.30;;
64986;SDS011;67903;52.108;9.358;2023-09-18T09:37:52;7.05;;;3.20;;
64986;SDS011;67903;52.108;9.358;2023-09-18T09:40:40;5.75;;;3.38;;
64986;SDS011;67903;52.108;9.358;2023-09-18T09:43:31;6.57;;;4.13;;
64986;SDS011;67903;52.108;9.358;2023-09-18T09:46:19;7.45;;;4.90;;
64986;SDS011;67903;52.108;9.358;2023-09-18T09:49:06;9.85;;;4.28;;
64986;SDS011;67903;52.108;9.358;2023-09-18T09:51:52;7.55;;;3.70;;
64986;SDS011;67903;52.108;9.358;2023-09-18T09:54:38;8.35;;;3.92;;
64986;SDS011;67903;52.108;9.358;2023-09-18T09:57:25;7.70;;;4.30;;
64986;SDS011;67903;52.108;9.358;2023-09-18T10:00:11;6.50;;;3.83;;
64986;SDS011;67903;52.108;9.358;2023-09-18T10:03:11;4.68;;;3.70;;
64986;SDS011;67903;52.108;9.358;2023-09-18T10:05:58;8.52;;;4.38;;
64986;SDS011;67903;52.108;9.358;2023-09-18T10:08:45;8.02;;;4.00;;
64986;SDS011;67903;52.108;9.358;2023-09-18T10:11:31;7.75;;;3.45;;
64986;SDS011;67903;52.108;9.358;2023-09-18T10:14:28;9.35;;;3.47;;
64986;SDS011;67903;52.108;9.358;2023-09-18T10:17:31;6.10;;;3.55;;
64986;SDS011;67903;52.108;9.358;2023-09-18T10:20:19;6.65;;;3.38;;
64986;SDS011;67903;52.108;9.358;2023-09-18T10:23:06;6.50;;;3.30;;
64986;SDS011;67903;52.108;9.358;2023-09-18T10:25:55;11.13;;;4.97;;
64986;SDS011;67903;52.108;9.358;2023-09-18T10:28:44;12.38;;;5.68;;
64986;SDS011;67903;52.108;9.358;2023-09-18T10:31:32;10.63;;;4.70;;
64986;SDS011;67903;52.108;9.358;2023-09-18T10:34:20;8.77;;;4.32;;
64986;SDS011;67903;52.108;9.358;2023-09-18T10:37:07;7.75;;;3.88;;
64986;SDS011;67903;52.108;9.358;2023-09-18T10:39:54;6.80;;;3.30;;
64986;SDS011;67903;52.108;9.358;2023-09-18T10:42:42;9.38;;;4.13;;
64986;SDS011;67903;52.108;9.358;2023-09-18T10:45:30;9.32;;;4.20;;
64986;SDS011;67903;52.108;9.358;2023-09-18T10:48:16;5.95;;;3.50;;
64986;SDS011;67903;52.108;9.358;2023-09-18T10:51:04;8.13;;;3.70;;
64986;SDS011;67903;52.108;9.358;2023-09-18T10:53:50;6.07;;;3.30;;
64986;SDS011;67903;52.108;9.358;2023-09-18T10:56:38;8.75;;;4.57;;
64986;SDS011;67903;52.108;9.358;2023-09-18T10:59:25;6.22;;;3.15;;
64986;SDS011;67903;52.108;9.358;2023-09-18T11:02:16;4.63;;;2.40;;
64986;SDS011;67903;52.108;9.358;2023-09-18T11:05:03;6.50;;;3.03;;
64986;SDS011;67903;52.108;9.358;2023-09-18T11:07:50;5.28;;;2.60;;
64986;SDS011;67903;52.108;9.358;2023-09-18T11:11:14;4.70;;;2.20;;
64986;SDS011;67903;52.108;9.358;2023-09-18T11:14:04;2.75;;;1.80;;
64986;SDS011;67903;52.108;9.358;2023-09-18T11:16:55;5.55;;;2.47;;
64986;SDS011;67903;52.108;9.358;2023-09-18T11:19:41;2.53;;;2.00;;
64986;SDS011;67903;52.108;9.358;2023-09-18T11:22:29;5.85;;;2.40;;
64986;SDS011;67903;52.108;9.358;2023-09-18T11:28:28;4.20;;;1.83;;
64986;SDS011;67903;52.108;9.358;2023-09-18T11:31:18;4.90;;;1.83;;
64986;SDS011;67903;52.108;9.358;2023-09-18T11:37:19;8.32;;;2.75;;
64986;SDS011;67903;52.108;9.358;2023-09-18T11:40:05;3.58;;;1.77;;
64986;SDS011;67903;52.108;9.358;2023-09-18T11:46:07;3.25;;;1.70;;
64986;SDS011;67903;52.108;9.358;2023-09-18T11:48:53;2.30;;;1.33;;
64986;SDS011;67903;52.108;9.358;2023-09-18T11:51:39;3.03;;;1.50;;
64986;SDS011;67903;52.108;9.358;2023-09-18T11:54:27;3.80;;;2.05;;
64986;SDS011;67903;52.108;9.358;2023-09-18T11:57:14;3.90;;;1.83;;
64986;SDS011;67903;52.108;9.358;2023-09-18T12:00:00;4.53;;;1.98;;
64986;SDS011;67903;52.108;9.358;2023-09-18T12:02:56;3.17;;;1.88;;
64986;SDS011;67903;52.108;9.358;2023-09-18T12:05:44;4.00;;;1.90;;
64986;SDS011;67903;52.108;9.358;2023-09-18T12:08:30;2.03;;;1.58;;
64986;SDS011;67903;52.108;9.358;2023-09-18T12:11:16;4.60;;;1.80;;
64986;SDS011;67903;52.108;9.358;2023-09-18T12:14:04;3.03;;;1.63;;
64986;SDS011;67903;52.108;9.358;2023-09-18T12:16:50;2.53;;;1.60;;
64986;SDS011;67903;52.108;9.358;2023-09-18T12:19:36;3.47;;;2.03;;
64986;SDS011;67903;52.108;9.358;2023-09-18T12:22:25;3.30;;;1.60;;
64986;SDS011;67903;52.108;9.358;2023-09-18T12:25:12;3.72;;;1.85;;
64986;SDS011;67903;52.108;9.358;2023-09-18T12:28:01;2.53;;;1.92;;
64986;SDS011;67903;52.108;9.358;2023-09-18T12:30:48;3.85;;;2.28;;
64986;SDS011;67903;52.108;9.358;2023-09-18T12:33:37;4.63;;;2.20;;
64986;SDS011;67903;52.108;9.358;2023-09-18T12:36:24;2.40;;;1.60;;
64986;SDS011;67903;52.108;9.358;2023-09-18T12:39:10;3.10;;;1.70;;
64986;SDS011;67903;52.108;9.358;2023-09-18T12:41:55;2.60;;;2.00;;
64986;SDS011;67903;52.108;9.358;2023-09-18T12:44:41;2.75;;;1.83;;
64986;SDS011;67903;52.108;9.358;2023-09-18T12:47:27;3.05;;;1.65;;
64986;SDS011;67903;52.108;9.358;2023-09-18T12:50:13;2.25;;;1.58;;
64986;SDS011;67903;52.108;9.358;2023-09-18T12:53:08;3.30;;;1.70;;
64986;SDS011;67903;52.108;9.358;2023-09-18T12:55:55;3.53;;;1.88;;
64986;SDS011;67903;52.108;9.358;2023-09-18T12:58:58;5.47;;;2.13;;
64986;SDS011;67903;52.108;9.358;2023-09-18T13:01:59;2.63;;;1.33;;
64986;SDS011;67903;52.108;9.358;2023-09-18T13:04:52;3.72;;;1.90;;
64986;SDS011;67903;52.108;9.358;2023-09-18T13:07:44;3.97;;;2.05;;
64986;SDS011;67903;52.108;9.358;2023-09-18T13:10:40;2.70;;;1.73;;
64986;SDS011;67903;52.108;9.358;2023-09-18T13:13:27;3.55;;;1.80;;
64986;SDS011;67903;52.108;9.358;2023-09-18T13:16:14;3.17;;;1.90;;
64986;SDS011;67903;52.108;9.358;2023-09-18T13:19:03;6.25;;;1.90;;
64986;SDS011;67903;52.108;9.358;2023-09-18T13:21:49;2.45;;;1.80;;
64986;SDS011;67903;52.108;9.358;2023-09-18T13:24:38;2.05;;;1.70;;
64986;SDS011;67903;52.108;9.358;2023-09-18T13:27:23;4.75;;;2.05;;
64986;SDS011;67903;52.108;9.358;2023-09-18T13:30:09;5.00;;;2.80;;
64986;SDS011;67903;52.108;9.358;2023-09-18T13:33:02;5.25;;;3.15;;
64986;SDS011;67903;52.108;9.358;2023-09-18T13:35:49;4.75;;;2.38;;
64986;SDS011;67903;52.108;9.358;2023-09-18T13:38:34;5.35;;;2.35;;
64986;SDS011;67903;52.108;9.358;2023-09-18T13:41:20;4.35;;;2.30;;
64986;SDS011;67903;52.108;9.358;2023-09-18T13:44:06;3.67;;;2.03;;
64986;SDS011;67903;52.108;9.358;2023-09-18T13:46:52;5.65;;;1.88;;
64986;SDS011;67903;52.108;9.358;2023-09-18T13:49:37;3.53;;;2.40;;
64986;SDS011;67903;52.108;9.358;2023-09-18T13:52:23;2.85;;;2.22;;
64986;SDS011;67903;52.108;9.358;2023-09-18T13:55:09;3.88;;;2.00;;
64986;SDS011;67903;52.108;9.358;2023-09-18T13:57:55;4.10;;;2.03;;
64986;SDS011;67903;52.108;9.358;2023-09-18T14:00:40;4.18;;;2.20;;
64986;SDS011;67903;52.108;9.358;2023-09-18T14:03:28;5.93;;;2.03;;
64986;SDS011;67903;52.108;9.358;2023-09-18T14:06:18;7.82;;;2.60;;
64986;SDS011;67903;52.108;9.358;2023-09-18T14:09:03;4.45;;;2.33;;
64986;SDS011;67903;52.108;9.358;2023-09-18T14:11:50;3.70;;;2.25;;
64986;SDS011;67903;52.108;9.358;2023-09-18T14:14:36;6.45;;;2.10;;
64986;SDS011;67903;52.108;9.358;2023-09-18T14:17:21;3.45;;;1.90;;
64986;SDS011;67903;52.108;9.358;2023-09-18T14:20:07;2.00;;;1.73;;
64986;SDS011;67903;52.108;9.358;2023-09-18T14:22:53;3.95;;;1.77;;
64986;SDS011;67903;52.108;9.358;2023-09-18T14:25:38;5.88;;;1.90;;
64986;SDS011;67903;52.108;9.358;2023-09-18T14:28:24;3.47;;;2.20;;
64986;SDS011;67903;52.108;9.358;2023-09-18T14:31:10;5.28;;;1.83;;
64986;SDS011;67903;52.108;9.358;2023-09-18T14:33:55;4.97;;;1.92;;
64986;SDS011;67903;52.108;9.358;2023-09-18T14:36:43;2.75;;;1.88;;
64986;SDS011;67903;52.108;9.358;2023-09-18T14:39:33;2.40;;;1.85;;
64986;SDS011;67903;52.108;9.358;2023-09-18T14:42:19;2.65;;;1.50;;
64986;SDS011;67903;52.108;9.358;2023-09-18T14:45:05;3.50;;;1.67;;
64986;SDS011;67903;52.108;9.358;2023-09-18T14:47:51;2.53;;;1.52;;
64986;SDS011;67903;52.108;9.358;2023-09-18T14:50:36;3.38;;;1.70;;
64986;SDS011;67903;52.108;9.358;2023-09-18T14:53:22;3.58;;;1.77;;
64986;SDS011;67903;52.108;9.358;2023-09-18T14:56:08;4.57;;;1.50;;
64986;SDS011;67903;52.108;9.358;2023-09-18T14:58:58;3.53;;;1.67;;
64986;SDS011;67903;52.108;9.358;2023-09-18T15:01:43;4.88;;;1.77;;
64986;SDS011;67903;52.108;9.358;2023-09-18T15:04:29;4.18;;;1.60;;
64986;SDS011;67903;52.108;9.358;2023-09-18T15:07:15;1.73;;;1.38;;
64986;SDS011;67903;52.108;9.358;2023-09-18T15:10:00;3.38;;;1.65;;
64986;SDS011;67903;52.108;9.358;2023-09-18T15:12:46;2.50;;;2.03;;
64986;SDS011;67903;52.108;9.358;2023-09-18T15:15:31;5.50;;;2.00;;
64986;SDS011;67903;52.108;9.358;2023-09-18T15:18:17;4.10;;;1.65;;
64986;SDS011;67903;52.108;9.358;2023-09-18T15:21:02;4.07;;;1.70;;
64986;SDS011;67903;52.108;9.358;2023-09-18T15:23:48;3.30;;;1.60;;
64986;SDS011;67903;52.108;9.358;2023-09-18T15:26:35;4.82;;;1.70;;
64986;SDS011;67903;52.108;9.358;2023-09-18T15:29:21;4.88;;;1.75;;
64986;SDS011;67903;52.108;9.358;2023-09-18T15:32:07;3.42;;;1.45;;
64986;SDS011;67903;52.108;9.358;2023-09-18T15:34:53;2.67;;;1.60;;
64986;SDS011;67903;52.108;9.358;2023-09-18T15:37:39;5.78;;;2.40;;
64986;SDS011;67903;52.108;9.358;2023-09-18T15:40:25;4.50;;;2.75;;
64986;SDS011;67903;52.108;9.358;2023-09-18T15:43:10;4.78;;;2.30;;
64986;SDS011;67903;52.108;9.358;2023-09-18T15:45:56;3.33;;;2.22;;
64986;SDS011;67903;52.108;9.358;2023-09-18T15:48:44;2.72;;;1.80;;
64986;SDS011;67903;52.108;9.358;2023-09-18T15:51:30;3.53;;;1.85;;
64986;SDS011;67903;52.108;9.358;2023-09-18T15:54:15;3.85;;;2.08;;
64986;SDS011;67903;52.108;9.358;2023-09-18T15:57:01;2.72;;;1.80;;
64986;SDS011;67903;52.108;9.358;2023-09-18T15:59:47;3.55;;;1.80;;
64986;SDS011;67903;52.108;9.358;2023-09-18T16:02:33;3.63;;;2.10;;
64986;SDS011;67903;52.108;9.358;2023-09-18T16:05:19;2.20;;;1.88;;
64986;SDS011;67903;52.108;9.358;2023-09-18T16:08:11;3.05;;;2.03;;
64986;SDS011;67903;52.108;9.358;2023-09-18T16:10:56;3.08;;;2.38;;
64986;SDS011;67903;52.108;9.358;2023-09-18T16:13:42;3.75;;;2.20;;
64986;SDS011;67903;52.108;9.358;2023-09-18T16:16:27;4.88;;;2.50;;
64986;SDS011;67903;52.108;9.358;2023-09-18T16:19:13;3.38;;;2.30;;
64986;SDS011;67903;52.108;9.358;2023-09-18T16:21:59;2.53;;;1.90;;
64986;SDS011;67903;52.108;9.358;2023-09-18T16:24:45;2.47;;;2.03;;
64986;SDS011;67903;52.108;9.358;2023-09-18T16:27:30;3.30;;;1.90;;
64986;SDS011;67903;52.108;9.358;2023-09-18T16:30:16;3.03;;;1.95;;
64986;SDS011;67903;52.108;9.358;2023-09-18T16:33:01;3.03;;;1.73;;
64986;SDS011;67903;52.108;9.358;2023-09-18T16:35:47;3.22;;;1.85;;
64986;SDS011;67903;52.108;9.358;2023-09-18T16:38:34;4.70;;;1.92;;
64986;SDS011;67903;52.108;9.358;2023-09-18T16:41:27;3.20;;;1.83;;
64986;SDS011;67903;52.108;9.358;2023-09-18T16:44:13;5.72;;;2.10;;
64986;SDS011;67903;52.108;9.358;2023-09-18T16:46:58;3.78;;;2.60;;
64986;SDS011;67903;52.108;9.358;2023-09-18T16:49:44;3.97;;;2.10;;
64986;SDS011;67903;52.108;9.358;2023-09-18T16:52:30;4.20;;;2.55;;
64986;SDS011;67903;52.108;9.358;2023-09-18T16:55:16;6.88;;;3.78;;
64986;SDS011;67903;52.108;9.358;2023-09-18T16:58:02;3.97;;;2.25;;
64986;SDS011;67903;52.108;9.358;2023-09-18T17:00:48;2.72;;;2.42;;